sensor_id;sensor_type;location;lat;lon;timestamp;P1;durP1;ratioP1;P2;durP2;ratioP2
67640;SDS011;54434;50.096;20.082;2022-11-20T00:02:03;54.30;;;20.40;;
67640;SDS011;54434;50.096;20.082;2022-11-20T00:04:40;53.20;;;22.00;;
67640;SDS011;54434;50.096;20.082;2022-11-20T00:07:16;59.10;;;24.60;;
67640;SDS011;54434;50.096;20.082;2022-11-20T00:09:52;72.50;;;28.00;;
67640;SDS011;54434;50.096;20.082;2022-11-20T00:12:28;68.30;;;25.50;;
67640;SDS011;54434;50.096;20.082;2022-11-20T00:15:05;68.20;;;27.10;;
67640;SDS011;54434;50.096;20.082;2022-11-20T00:17:43;70.70;;;27.60;;
67640;SDS011;54434;50.096;20.082;2022-11-20T00:20:22;68.60;;;28.30;;
67640;SDS011;54434;50.096;20.082;2022-11-20T00:22:59;69.90;;;26.70;;
67640;SDS011;54434;50.096;20.082;2022-11-20T00:25:36;70.60;;;28.50;;
67640;SDS011;54434;50.096;20.082;2022-11-20T00:28:12;77.00;;;28.00;;
67640;SDS011;54434;50.096;20.082;2022-11-20T00:30:49;78.40;;;27.70;;
67640;SDS011;54434;50.096;20.082;2022-11-20T00:33:24;70.30;;;27.60;;
67640;SDS011;54434;50.096;20.082;2022-11-20T00:36:07;75.20;;;27.20;;
67640;SDS011;54434;50.096;20.082;2022-11-20T00:38:44;68.60;;;26.90;;
67640;SDS011;54434;50.096;20.082;2022-11-20T00:41:21;71.10;;;25.20;;
67640;SDS011;54434;50.096;20.082;2022-11-20T00:43:58;70.00;;;27.30;;
67640;SDS011;54434;50.096;20.082;2022-11-20T00:46:34;69.40;;;26.70;;
67640;SDS011;54434;50.096;20.082;2022-11-20T00:49:10;79.10;;;28.90;;
67640;SDS011;54434;50.096;20.082;2022-11-20T00:51:46;87.30;;;31.60;;
67640;SDS011;54434;50.096;20.082;2022-11-20T00:54:22;81.10;;;29.50;;
67640;SDS011;54434;50.096;20.082;2022-11-20T00:56:58;89.20;;;31.80;;
67640;SDS011;54434;50.096;20.082;2022-11-20T00:59:34;83.80;;;30.60;;
67640;SDS011;54434;50.096;20.082;2022-11-20T01:02:10;82.60;;;31.60;;
67640;SDS011;54434;50.096;20.082;2022-11-20T01:04:45;82.30;;;32.50;;
67640;SDS011;54434;50.096;20.082;2022-11-20T01:07:22;84.00;;;31.20;;
67640;SDS011;54434;50.096;20.082;2022-11-20T01:09:58;92.10;;;31.30;;
67640;SDS011;54434;50.096;20.082;2022-11-20T01:12:34;78.30;;;29.40;;
67640;SDS011;54434;50.096;20.082;2022-11-20T01:15:11;86.50;;;31.00;;
67640;SDS011;54434;50.096;20.082;2022-11-20T01:17:47;86.20;;;31.80;;
67640;SDS011;54434;50.096;20.082;2022-11-20T01:20:23;75.00;;;30.00;;
67640;SDS011;54434;50.096;20.082;2022-11-20T01:22:59;81.30;;;30.30;;
67640;SDS011;54434;50.096;20.082;2022-11-20T01:25:35;80.30;;;30.70;;
67640;SDS011;54434;50.096;20.082;2022-11-20T01:28:11;80.00;;;29.40;;
67640;SDS011;54434;50.096;20.082;2022-11-20T01:30:47;78.50;;;30.00;;
67640;SDS011;54434;50.096;20.082;2022-11-20T01:33:23;68.70;;;28.40;;
67640;SDS011;54434;50.096;20.082;2022-11-20T01:36:08;80.50;;;29.90;;
67640;SDS011;54434;50.096;20.082;2022-11-20T01:38:45;73.60;;;29.90;;
67640;SDS011;54434;50.096;20.082;2022-11-20T01:41:22;73.60;;;29.40;;
67640;SDS011;54434;50.096;20.082;2022-11-20T01:44:22;74.80;;;29.90;;
67640;SDS011;54434;50.096;20.082;2022-11-20T01:47:14;74.20;;;28.30;;
67640;SDS011;54434;50.096;20.082;2022-11-20T01:49:56;77.60;;;28.70;;
67640;SDS011;54434;50.096;20.082;2022-11-20T01:52:39;70.40;;;28.10;;
67640;SDS011;54434;50.096;20.082;2022-11-20T01:55:23;78.80;;;30.60;;
67640;SDS011;54434;50.096;20.082;2022-11-20T01:58:04;74.10;;;28.20;;
67640;SDS011;54434;50.096;20.082;2022-11-20T02:00:41;75.70;;;28.90;;
67640;SDS011;54434;50.096;20.082;2022-11-20T02:03:20;76.40;;;30.40;;
67640;SDS011;54434;50.096;20.082;2022-11-20T02:06:04;71.80;;;28.00;;
67640;SDS011;54434;50.096;20.082;2022-11-20T02:08:44;68.20;;;27.10;;
67640;SDS011;54434;50.096;20.082;2022-11-20T02:11:20;76.60;;;29.40;;
67640;SDS011;54434;50.096;20.082;2022-11-20T02:13:57;79.40;;;28.70;;
67640;SDS011;54434;50.096;20.082;2022-11-20T02:16:37;73.50;;;28.20;;
67640;SDS011;54434;50.096;20.082;2022-11-20T02:19:24;78.20;;;29.30;;
67640;SDS011;54434;50.096;20.082;2022-11-20T02:22:07;72.30;;;28.20;;
67640;SDS011;54434;50.096;20.082;2022-11-20T02:24:49;74.70;;;27.70;;
67640;SDS011;54434;50.096;20.082;2022-11-20T02:27:27;77.20;;;28.60;;
67640;SDS011;54434;50.096;20.082;2022-11-20T02:30:05;69.40;;;27.80;;
67640;SDS011;54434;50.096;20.082;2022-11-20T02:32:44;76.50;;;29.10;;
67640;SDS011;54434;50.096;20.082;2022-11-20T02:35:43;76.00;;;29.30;;
67640;SDS011;54434;50.096;20.082;2022-11-20T02:38:20;71.70;;;27.10;;
67640;SDS011;54434;50.096;20.082;2022-11-20T02:40:57;76.10;;;28.10;;
67640;SDS011;54434;50.096;20.082;2022-11-20T02:43:33;79.60;;;28.30;;
67640;SDS011;54434;50.096;20.082;2022-11-20T02:46:11;83.70;;;28.80;;
67640;SDS011;54434;50.096;20.082;2022-11-20T02:48:47;76.80;;;29.40;;
67640;SDS011;54434;50.096;20.082;2022-11-20T02:51:23;72.80;;;29.60;;
67640;SDS011;54434;50.096;20.082;2022-11-20T02:53:59;73.00;;;28.80;;
67640;SDS011;54434;50.096;20.082;2022-11-20T02:56:35;74.00;;;29.60;;
67640;SDS011;54434;50.096;20.082;2022-11-20T02:59:13;79.70;;;30.10;;
67640;SDS011;54434;50.096;20.082;2022-11-20T03:01:49;82.00;;;30.40;;
67640;SDS011;54434;50.096;20.082;2022-11-20T03:04:28;80.30;;;30.10;;
67640;SDS011;54434;50.096;20.082;2022-11-20T03:07:03;74.20;;;29.50;;
67640;SDS011;54434;50.096;20.082;2022-11-20T03:09:40;80.60;;;30.00;;
67640;SDS011;54434;50.096;20.082;2022-11-20T03:12:15;66.80;;;29.00;;
67640;SDS011;54434;50.096;20.082;2022-11-20T03:14:52;85.20;;;29.60;;
67640;SDS011;54434;50.096;20.082;2022-11-20T03:17:28;78.00;;;29.90;;
67640;SDS011;54434;50.096;20.082;2022-11-20T03:20:05;64.80;;;25.90;;
67640;SDS011;54434;50.096;20.082;2022-11-20T03:22:42;77.50;;;29.70;;
67640;SDS011;54434;50.096;20.082;2022-11-20T03:25:19;78.80;;;30.10;;
67640;SDS011;54434;50.096;20.082;2022-11-20T03:27:55;67.90;;;27.10;;
67640;SDS011;54434;50.096;20.082;2022-11-20T03:30:31;67.50;;;27.10;;
67640;SDS011;54434;50.096;20.082;2022-11-20T03:33:07;75.40;;;28.40;;
67640;SDS011;54434;50.096;20.082;2022-11-20T03:35:43;77.10;;;27.50;;
67640;SDS011;54434;50.096;20.082;2022-11-20T03:38:19;75.10;;;28.00;;
67640;SDS011;54434;50.096;20.082;2022-11-20T03:41:01;73.90;;;28.40;;
67640;SDS011;54434;50.096;20.082;2022-11-20T03:43:38;72.00;;;28.20;;
67640;SDS011;54434;50.096;20.082;2022-11-20T03:46:15;74.70;;;30.20;;
67640;SDS011;54434;50.096;20.082;2022-11-20T03:48:52;79.70;;;29.50;;
67640;SDS011;54434;50.096;20.082;2022-11-20T03:51:30;66.90;;;27.50;;
67640;SDS011;54434;50.096;20.082;2022-11-20T03:54:09;79.90;;;30.50;;
67640;SDS011;54434;50.096;20.082;2022-11-20T03:56:45;82.00;;;29.70;;
67640;SDS011;54434;50.096;20.082;2022-11-20T03:59:21;70.60;;;29.00;;
67640;SDS011;54434;50.096;20.082;2022-11-20T04:01:57;78.30;;;29.20;;
67640;SDS011;54434;50.096;20.082;2022-11-20T04:04:33;77.20;;;29.70;;
67640;SDS011;54434;50.096;20.082;2022-11-20T04:07:09;79.30;;;29.90;;
67640;SDS011;54434;50.096;20.082;2022-11-20T04:09:45;78.50;;;28.00;;
67640;SDS011;54434;50.096;20.082;2022-11-20T04:12:21;75.40;;;29.20;;
67640;SDS011;54434;50.096;20.082;2022-11-20T04:14:57;76.50;;;30.90;;
67640;SDS011;54434;50.096;20.082;2022-11-20T04:17:33;82.30;;;28.90;;
67640;SDS011;54434;50.096;20.082;2022-11-20T04:22:47;74.20;;;28.70;;
67640;SDS011;54434;50.096;20.082;2022-11-20T04:25:23;85.40;;;31.00;;
67640;SDS011;54434;50.096;20.082;2022-11-20T04:27:59;77.50;;;31.20;;
67640;SDS011;54434;50.096;20.082;2022-11-20T04:30:35;77.30;;;30.00;;
67640;SDS011;54434;50.096;20.082;2022-11-20T04:33:11;85.60;;;30.20;;
67640;SDS011;54434;50.096;20.082;2022-11-20T04:35:47;80.70;;;31.10;;
67640;SDS011;54434;50.096;20.082;2022-11-20T04:38:23;83.20;;;31.60;;
67640;SDS011;54434;50.096;20.082;2022-11-20T04:41:02;78.20;;;31.10;;
67640;SDS011;54434;50.096;20.082;2022-11-20T04:43:39;77.80;;;30.10;;
67640;SDS011;54434;50.096;20.082;2022-11-20T04:46:16;80.00;;;31.40;;
67640;SDS011;54434;50.096;20.082;2022-11-20T04:48:52;80.70;;;30.20;;
67640;SDS011;54434;50.096;20.082;2022-11-20T04:51:29;73.80;;;30.20;;
67640;SDS011;54434;50.096;20.082;2022-11-20T04:54:05;80.60;;;31.00;;
67640;SDS011;54434;50.096;20.082;2022-11-20T04:56:42;66.00;;;29.00;;
67640;SDS011;54434;50.096;20.082;2022-11-20T04:59:18;82.60;;;30.70;;
67640;SDS011;54434;50.096;20.082;2022-11-20T05:01:55;145.40;;;50.80;;
67640;SDS011;54434;50.096;20.082;2022-11-20T05:04:31;85.70;;;32.10;;
67640;SDS011;54434;50.096;20.082;2022-11-20T05:07:07;80.70;;;31.10;;
67640;SDS011;54434;50.096;20.082;2022-11-20T05:09:43;79.10;;;28.90;;
67640;SDS011;54434;50.096;20.082;2022-11-20T05:12:19;68.90;;;28.20;;
67640;SDS011;54434;50.096;20.082;2022-11-20T05:14:55;75.10;;;28.20;;
67640;SDS011;54434;50.096;20.082;2022-11-20T05:17:31;71.50;;;29.60;;
67640;SDS011;54434;50.096;20.082;2022-11-20T05:20:10;76.30;;;29.20;;
67640;SDS011;54434;50.096;20.082;2022-11-20T05:22:46;68.10;;;27.90;;
67640;SDS011;54434;50.096;20.082;2022-11-20T05:25:22;71.50;;;28.80;;
67640;SDS011;54434;50.096;20.082;2022-11-20T05:27:58;68.40;;;27.20;;
67640;SDS011;54434;50.096;20.082;2022-11-20T05:30:34;73.10;;;26.00;;
67640;SDS011;54434;50.096;20.082;2022-11-20T05:33:11;73.10;;;29.10;;
67640;SDS011;54434;50.096;20.082;2022-11-20T05:35:47;72.50;;;27.60;;
67640;SDS011;54434;50.096;20.082;2022-11-20T05:38:23;75.70;;;27.80;;
67640;SDS011;54434;50.096;20.082;2022-11-20T05:41:06;76.50;;;29.50;;
67640;SDS011;54434;50.096;20.082;2022-11-20T05:43:45;76.70;;;27.80;;
67640;SDS011;54434;50.096;20.082;2022-11-20T05:46:23;69.30;;;26.40;;
67640;SDS011;54434;50.096;20.082;2022-11-20T05:49:01;69.20;;;28.20;;
67640;SDS011;54434;50.096;20.082;2022-11-20T05:51:37;60.80;;;26.70;;
67640;SDS011;54434;50.096;20.082;2022-11-20T05:54:14;64.40;;;25.90;;
67640;SDS011;54434;50.096;20.082;2022-11-20T05:56:50;68.40;;;27.90;;
67640;SDS011;54434;50.096;20.082;2022-11-20T05:59:26;80.10;;;27.60;;
67640;SDS011;54434;50.096;20.082;2022-11-20T06:02:02;65.80;;;28.70;;
67640;SDS011;54434;50.096;20.082;2022-11-20T06:04:39;71.40;;;28.90;;
67640;SDS011;54434;50.096;20.082;2022-11-20T06:07:15;73.30;;;28.00;;
67640;SDS011;54434;50.096;20.082;2022-11-20T06:09:51;79.70;;;28.80;;
67640;SDS011;54434;50.096;20.082;2022-11-20T06:12:27;71.70;;;28.20;;
67640;SDS011;54434;50.096;20.082;2022-11-20T06:15:06;75.80;;;30.20;;
67640;SDS011;54434;50.096;20.082;2022-11-20T06:17:43;70.50;;;27.20;;
67640;SDS011;54434;50.096;20.082;2022-11-20T06:20:19;65.80;;;27.40;;
67640;SDS011;54434;50.096;20.082;2022-11-20T06:22:56;70.00;;;27.20;;
67640;SDS011;54434;50.096;20.082;2022-11-20T06:25:32;71.60;;;27.50;;
67640;SDS011;54434;50.096;20.082;2022-11-20T06:28:10;77.80;;;27.40;;
67640;SDS011;54434;50.096;20.082;2022-11-20T06:30:48;68.70;;;25.60;;
67640;SDS011;54434;50.096;20.082;2022-11-20T06:33:24;62.50;;;24.20;;
67640;SDS011;54434;50.096;20.082;2022-11-20T06:36:02;63.90;;;26.10;;
67640;SDS011;54434;50.096;20.082;2022-11-20T06:38:43;68.80;;;27.90;;
67640;SDS011;54434;50.096;20.082;2022-11-20T06:41:20;71.00;;;28.80;;
67640;SDS011;54434;50.096;20.082;2022-11-20T06:43:58;73.40;;;27.30;;
67640;SDS011;54434;50.096;20.082;2022-11-20T06:46:34;73.60;;;30.40;;
67640;SDS011;54434;50.096;20.082;2022-11-20T06:49:10;63.60;;;26.70;;
67640;SDS011;54434;50.096;20.082;2022-11-20T06:51:46;65.10;;;26.60;;
67640;SDS011;54434;50.096;20.082;2022-11-20T06:54:22;67.00;;;27.70;;
67640;SDS011;54434;50.096;20.082;2022-11-20T06:56:58;71.90;;;27.90;;
67640;SDS011;54434;50.096;20.082;2022-11-20T06:59:34;83.40;;;31.70;;
67640;SDS011;54434;50.096;20.082;2022-11-20T07:02:12;73.90;;;28.70;;
67640;SDS011;54434;50.096;20.082;2022-11-20T07:04:48;68.60;;;27.50;;
67640;SDS011;54434;50.096;20.082;2022-11-20T07:07:25;77.10;;;29.60;;
67640;SDS011;54434;50.096;20.082;2022-11-20T07:10:01;68.00;;;28.10;;
67640;SDS011;54434;50.096;20.082;2022-11-20T07:12:37;76.30;;;30.60;;
67640;SDS011;54434;50.096;20.082;2022-11-20T07:15:14;70.50;;;28.70;;
67640;SDS011;54434;50.096;20.082;2022-11-20T07:17:50;84.40;;;32.30;;
67640;SDS011;54434;50.096;20.082;2022-11-20T07:20:26;82.00;;;30.80;;
67640;SDS011;54434;50.096;20.082;2022-11-20T07:23:02;83.10;;;32.70;;
67640;SDS011;54434;50.096;20.082;2022-11-20T07:25:38;77.10;;;30.70;;
67640;SDS011;54434;50.096;20.082;2022-11-20T07:28:14;83.10;;;31.70;;
67640;SDS011;54434;50.096;20.082;2022-11-20T07:30:54;86.50;;;33.50;;
67640;SDS011;54434;50.096;20.082;2022-11-20T07:33:30;91.10;;;34.30;;
67640;SDS011;54434;50.096;20.082;2022-11-20T07:36:07;78.60;;;30.80;;
67640;SDS011;54434;50.096;20.082;2022-11-20T07:38:43;75.60;;;31.20;;
67640;SDS011;54434;50.096;20.082;2022-11-20T07:41:19;75.00;;;31.30;;
67640;SDS011;54434;50.096;20.082;2022-11-20T07:43:55;82.50;;;33.00;;
67640;SDS011;54434;50.096;20.082;2022-11-20T07:46:31;75.00;;;29.50;;
67640;SDS011;54434;50.096;20.082;2022-11-20T07:49:07;77.50;;;29.70;;
67640;SDS011;54434;50.096;20.082;2022-11-20T07:51:43;72.90;;;30.30;;
67640;SDS011;54434;50.096;20.082;2022-11-20T07:54:24;82.90;;;30.50;;
67640;SDS011;54434;50.096;20.082;2022-11-20T07:57:00;90.60;;;34.80;;
67640;SDS011;54434;50.096;20.082;2022-11-20T07:59:36;81.70;;;31.70;;
67640;SDS011;54434;50.096;20.082;2022-11-20T08:02:14;79.10;;;31.60;;
67640;SDS011;54434;50.096;20.082;2022-11-20T08:04:50;86.10;;;31.30;;
67640;SDS011;54434;50.096;20.082;2022-11-20T08:07:26;75.00;;;30.10;;
67640;SDS011;54434;50.096;20.082;2022-11-20T08:10:02;82.20;;;32.00;;
67640;SDS011;54434;50.096;20.082;2022-11-20T08:12:45;81.60;;;30.20;;
67640;SDS011;54434;50.096;20.082;2022-11-20T08:15:40;76.30;;;30.60;;
67640;SDS011;54434;50.096;20.082;2022-11-20T08:18:21;70.80;;;29.50;;
67640;SDS011;54434;50.096;20.082;2022-11-20T08:21:08;83.90;;;32.70;;
67640;SDS011;54434;50.096;20.082;2022-11-20T08:23:44;68.50;;;29.20;;
67640;SDS011;54434;50.096;20.082;2022-11-20T08:26:22;71.70;;;30.00;;
67640;SDS011;54434;50.096;20.082;2022-11-20T08:28:58;64.20;;;28.60;;
67640;SDS011;54434;50.096;20.082;2022-11-20T08:31:34;72.40;;;30.10;;
67640;SDS011;54434;50.096;20.082;2022-11-20T08:34:31;64.00;;;27.30;;
67640;SDS011;54434;50.096;20.082;2022-11-20T08:37:10;77.20;;;28.10;;
67640;SDS011;54434;50.096;20.082;2022-11-20T08:39:46;86.30;;;31.60;;
67640;SDS011;54434;50.096;20.082;2022-11-20T08:42:22;74.20;;;30.50;;
67640;SDS011;54434;50.096;20.082;2022-11-20T08:44:58;85.10;;;31.20;;
67640;SDS011;54434;50.096;20.082;2022-11-20T08:47:34;82.60;;;30.80;;
67640;SDS011;54434;50.096;20.082;2022-11-20T08:50:12;70.20;;;28.80;;
67640;SDS011;54434;50.096;20.082;2022-11-20T08:52:50;72.80;;;27.70;;
67640;SDS011;54434;50.096;20.082;2022-11-20T08:55:26;79.90;;;29.70;;
67640;SDS011;54434;50.096;20.082;2022-11-20T08:58:05;75.30;;;29.00;;
67640;SDS011;54434;50.096;20.082;2022-11-20T09:00:42;90.70;;;32.80;;
67640;SDS011;54434;50.096;20.082;2022-11-20T09:03:18;73.30;;;29.70;;
67640;SDS011;54434;50.096;20.082;2022-11-20T09:05:58;80.00;;;31.10;;
67640;SDS011;54434;50.096;20.082;2022-11-20T09:08:35;81.70;;;31.60;;
67640;SDS011;54434;50.096;20.082;2022-11-20T09:11:11;74.90;;;28.30;;
67640;SDS011;54434;50.096;20.082;2022-11-20T09:13:47;67.60;;;27.40;;
67640;SDS011;54434;50.096;20.082;2022-11-20T09:16:23;78.70;;;32.30;;
67640;SDS011;54434;50.096;20.082;2022-11-20T09:18:59;72.50;;;28.60;;
67640;SDS011;54434;50.096;20.082;2022-11-20T09:21:55;72.90;;;28.00;;
67640;SDS011;54434;50.096;20.082;2022-11-20T09:24:33;64.90;;;26.80;;
67640;SDS011;54434;50.096;20.082;2022-11-20T09:27:09;65.30;;;27.70;;
67640;SDS011;54434;50.096;20.082;2022-11-20T09:29:45;74.50;;;30.20;;
67640;SDS011;54434;50.096;20.082;2022-11-20T09:32:21;73.00;;;28.80;;
67640;SDS011;54434;50.096;20.082;2022-11-20T09:34:57;77.10;;;28.60;;
67640;SDS011;54434;50.096;20.082;2022-11-20T09:37:38;70.80;;;27.60;;
67640;SDS011;54434;50.096;20.082;2022-11-20T09:40:21;72.70;;;24.80;;
67640;SDS011;54434;50.096;20.082;2022-11-20T09:43:03;80.50;;;29.50;;
67640;SDS011;54434;50.096;20.082;2022-11-20T09:46:05;68.30;;;27.50;;
67640;SDS011;54434;50.096;20.082;2022-11-20T09:49:13;67.20;;;26.40;;
67640;SDS011;54434;50.096;20.082;2022-11-20T09:52:16;67.80;;;24.80;;
67640;SDS011;54434;50.096;20.082;2022-11-20T09:55:06;71.00;;;25.70;;
67640;SDS011;54434;50.096;20.082;2022-11-20T09:57:47;72.20;;;25.80;;
67640;SDS011;54434;50.096;20.082;2022-11-20T10:00:27;67.20;;;25.80;;
67640;SDS011;54434;50.096;20.082;2022-11-20T10:03:11;71.50;;;27.80;;
67640;SDS011;54434;50.096;20.082;2022-11-20T10:05:54;88.30;;;32.10;;
67640;SDS011;54434;50.096;20.082;2022-11-20T10:08:37;85.80;;;33.80;;
67640;SDS011;54434;50.096;20.082;2022-11-20T10:11:26;82.10;;;32.00;;
67640;SDS011;54434;50.096;20.082;2022-11-20T10:14:18;75.30;;;31.80;;
67640;SDS011;54434;50.096;20.082;2022-11-20T10:17:14;127.20;;;46.70;;
67640;SDS011;54434;50.096;20.082;2022-11-20T10:20:10;101.50;;;38.00;;
67640;SDS011;54434;50.096;20.082;2022-11-20T10:23:11;90.10;;;35.60;;
67640;SDS011;54434;50.096;20.082;2022-11-20T10:26:03;80.80;;;33.70;;
67640;SDS011;54434;50.096;20.082;2022-11-20T10:29:03;93.40;;;36.40;;
67640;SDS011;54434;50.096;20.082;2022-11-20T10:31:50;78.80;;;31.60;;
67640;SDS011;54434;50.096;20.082;2022-11-20T10:34:43;79.70;;;32.10;;
67640;SDS011;54434;50.096;20.082;2022-11-20T10:37:26;68.30;;;29.30;;
67640;SDS011;54434;50.096;20.082;2022-11-20T10:40:18;71.80;;;32.80;;
67640;SDS011;54434;50.096;20.082;2022-11-20T10:43:01;74.10;;;30.80;;
67640;SDS011;54434;50.096;20.082;2022-11-20T10:45:52;81.00;;;33.00;;
67640;SDS011;54434;50.096;20.082;2022-11-20T10:48:32;79.00;;;32.60;;
67640;SDS011;54434;50.096;20.082;2022-11-20T10:51:25;73.40;;;32.50;;
67640;SDS011;54434;50.096;20.082;2022-11-20T10:54:20;70.90;;;30.00;;
67640;SDS011;54434;50.096;20.082;2022-11-20T10:57:07;67.60;;;29.60;;
67640;SDS011;54434;50.096;20.082;2022-11-20T11:00:04;73.20;;;30.90;;
67640;SDS011;54434;50.096;20.082;2022-11-20T11:02:48;88.60;;;37.30;;
67640;SDS011;54434;50.096;20.082;2022-11-20T11:08:16;64.30;;;26.70;;
67640;SDS011;54434;50.096;20.082;2022-11-20T11:10:56;71.20;;;29.70;;
67640;SDS011;54434;50.096;20.082;2022-11-20T11:13:34;76.80;;;31.40;;
67640;SDS011;54434;50.096;20.082;2022-11-20T11:16:25;107.00;;;39.90;;
67640;SDS011;54434;50.096;20.082;2022-11-20T11:19:12;106.40;;;41.10;;
67640;SDS011;54434;50.096;20.082;2022-11-20T11:21:54;99.80;;;38.60;;
67640;SDS011;54434;50.096;20.082;2022-11-20T11:24:32;93.00;;;40.40;;
67640;SDS011;54434;50.096;20.082;2022-11-20T11:27:16;92.00;;;38.50;;
67640;SDS011;54434;50.096;20.082;2022-11-20T11:30:03;94.80;;;37.70;;
67640;SDS011;54434;50.096;20.082;2022-11-20T11:32:48;83.80;;;36.70;;
67640;SDS011;54434;50.096;20.082;2022-11-20T11:35:28;79.80;;;35.30;;
67640;SDS011;54434;50.096;20.082;2022-11-20T11:38:13;71.50;;;33.70;;
67640;SDS011;54434;50.096;20.082;2022-11-20T11:40:54;75.60;;;33.90;;
67640;SDS011;54434;50.096;20.082;2022-11-20T11:43:34;74.30;;;35.40;;
67640;SDS011;54434;50.096;20.082;2022-11-20T11:46:33;71.00;;;32.70;;
67640;SDS011;54434;50.096;20.082;2022-11-20T11:49:19;73.10;;;34.30;;
67640;SDS011;54434;50.096;20.082;2022-11-20T11:52:08;80.80;;;36.80;;
67640;SDS011;54434;50.096;20.082;2022-11-20T11:54:53;83.90;;;36.70;;
67640;SDS011;54434;50.096;20.082;2022-11-20T11:57:49;78.80;;;34.10;;
67640;SDS011;54434;50.096;20.082;2022-11-20T12:00:29;68.50;;;31.70;;
67640;SDS011;54434;50.096;20.082;2022-11-20T12:03:13;77.40;;;34.50;;
67640;SDS011;54434;50.096;20.082;2022-11-20T12:05:58;86.30;;;38.80;;
67640;SDS011;54434;50.096;20.082;2022-11-20T12:08:44;78.80;;;35.30;;
67640;SDS011;54434;50.096;20.082;2022-11-20T12:11:33;81.00;;;37.00;;
67640;SDS011;54434;50.096;20.082;2022-11-20T12:14:16;100.80;;;38.90;;
67640;SDS011;54434;50.096;20.082;2022-11-20T12:16:57;103.00;;;40.20;;
67640;SDS011;54434;50.096;20.082;2022-11-20T12:19:35;106.80;;;42.40;;
67640;SDS011;54434;50.096;20.082;2022-11-20T12:22:25;100.70;;;41.80;;
67640;SDS011;54434;50.096;20.082;2022-11-20T12:25:12;107.80;;;44.70;;
67640;SDS011;54434;50.096;20.082;2022-11-20T12:31:36;108.80;;;40.80;;
67640;SDS011;54434;50.096;20.082;2022-11-20T12:34:46;103.20;;;42.00;;
67640;SDS011;54434;50.096;20.082;2022-11-20T12:37:42;117.20;;;44.90;;
67640;SDS011;54434;50.096;20.082;2022-11-20T12:40:38;113.20;;;44.20;;
67640;SDS011;54434;50.096;20.082;2022-11-20T12:43:22;108.00;;;43.80;;
67640;SDS011;54434;50.096;20.082;2022-11-20T12:46:29;92.40;;;38.80;;
67640;SDS011;54434;50.096;20.082;2022-11-20T12:49:30;88.80;;;38.70;;
67640;SDS011;54434;50.096;20.082;2022-11-20T12:55:23;92.40;;;35.00;;
67640;SDS011;54434;50.096;20.082;2022-11-20T12:58:15;81.50;;;35.30;;
67640;SDS011;54434;50.096;20.082;2022-11-20T13:01:05;90.40;;;38.10;;
67640;SDS011;54434;50.096;20.082;2022-11-20T13:04:23;79.10;;;34.80;;
67640;SDS011;54434;50.096;20.082;2022-11-20T13:07:15;83.60;;;35.00;;
67640;SDS011;54434;50.096;20.082;2022-11-20T13:09:54;78.00;;;34.70;;
67640;SDS011;54434;50.096;20.082;2022-11-20T13:12:36;84.50;;;35.50;;
67640;SDS011;54434;50.096;20.082;2022-11-20T13:15:44;76.50;;;34.80;;
67640;SDS011;54434;50.096;20.082;2022-11-20T13:18:28;82.20;;;36.10;;
67640;SDS011;54434;50.096;20.082;2022-11-20T13:21:19;84.00;;;36.10;;
67640;SDS011;54434;50.096;20.082;2022-11-20T13:24:06;87.60;;;36.40;;
67640;SDS011;54434;50.096;20.082;2022-11-20T13:27:21;106.70;;;42.20;;
67640;SDS011;54434;50.096;20.082;2022-11-20T13:30:15;111.20;;;41.70;;
67640;SDS011;54434;50.096;20.082;2022-11-20T13:32:58;106.90;;;42.70;;
67640;SDS011;54434;50.096;20.082;2022-11-20T13:35:42;104.00;;;41.80;;
67640;SDS011;54434;50.096;20.082;2022-11-20T13:38:39;110.20;;;44.00;;
67640;SDS011;54434;50.096;20.082;2022-11-20T13:41:28;112.40;;;44.50;;
67640;SDS011;54434;50.096;20.082;2022-11-20T13:44:15;98.40;;;40.40;;
67640;SDS011;54434;50.096;20.082;2022-11-20T13:46:59;100.50;;;40.90;;
67640;SDS011;54434;50.096;20.082;2022-11-20T13:49:39;98.90;;;39.60;;
67640;SDS011;54434;50.096;20.082;2022-11-20T13:52:49;87.40;;;38.10;;
67640;SDS011;54434;50.096;20.082;2022-11-20T13:55:38;94.50;;;39.10;;
67640;SDS011;54434;50.096;20.082;2022-11-20T13:58:33;95.00;;;39.50;;
67640;SDS011;54434;50.096;20.082;2022-11-20T14:01:21;98.70;;;38.60;;
67640;SDS011;54434;50.096;20.082;2022-11-20T14:04:00;94.60;;;40.20;;
67640;SDS011;54434;50.096;20.082;2022-11-20T14:06:45;100.90;;;42.20;;
67640;SDS011;54434;50.096;20.082;2022-11-20T14:09:31;88.90;;;38.80;;
67640;SDS011;54434;50.096;20.082;2022-11-20T14:12:18;99.90;;;39.00;;
67640;SDS011;54434;50.096;20.082;2022-11-20T14:14:57;110.00;;;40.20;;
67640;SDS011;54434;50.096;20.082;2022-11-20T14:17:35;122.20;;;45.60;;
67640;SDS011;54434;50.096;20.082;2022-11-20T14:20:16;114.90;;;45.00;;
67640;SDS011;54434;50.096;20.082;2022-11-20T14:22:58;123.90;;;46.10;;
67640;SDS011;54434;50.096;20.082;2022-11-20T14:25:35;118.70;;;44.90;;
67640;SDS011;54434;50.096;20.082;2022-11-20T14:28:26;114.40;;;45.70;;
67640;SDS011;54434;50.096;20.082;2022-11-20T14:31:03;111.60;;;44.10;;
67640;SDS011;54434;50.096;20.082;2022-11-20T14:33:51;118.40;;;42.50;;
67640;SDS011;54434;50.096;20.082;2022-11-20T14:36:28;106.70;;;42.20;;
67640;SDS011;54434;50.096;20.082;2022-11-20T14:39:05;110.30;;;44.10;;
67640;SDS011;54434;50.096;20.082;2022-11-20T14:41:53;92.20;;;39.30;;
67640;SDS011;54434;50.096;20.082;2022-11-20T14:44:34;99.70;;;38.60;;
67640;SDS011;54434;50.096;20.082;2022-11-20T14:47:13;77.10;;;35.00;;
67640;SDS011;54434;50.096;20.082;2022-11-20T14:49:53;91.10;;;38.20;;
67640;SDS011;54434;50.096;20.082;2022-11-20T14:52:31;83.00;;;37.40;;
67640;SDS011;54434;50.096;20.082;2022-11-20T14:55:13;86.60;;;36.80;;
67640;SDS011;54434;50.096;20.082;2022-11-20T14:58:00;100.30;;;39.00;;
67640;SDS011;54434;50.096;20.082;2022-11-20T15:00:37;88.00;;;35.20;;
67640;SDS011;54434;50.096;20.082;2022-11-20T15:03:19;88.30;;;35.80;;
67640;SDS011;54434;50.096;20.082;2022-11-20T15:06:01;89.80;;;38.10;;
67640;SDS011;54434;50.096;20.082;2022-11-20T15:08:38;93.10;;;38.20;;
67640;SDS011;54434;50.096;20.082;2022-11-20T15:11:30;95.00;;;37.30;;
67640;SDS011;54434;50.096;20.082;2022-11-20T15:14:10;105.00;;;39.70;;
67640;SDS011;54434;50.096;20.082;2022-11-20T15:16:46;104.10;;;39.40;;
67640;SDS011;54434;50.096;20.082;2022-11-20T15:19:24;100.10;;;39.30;;
67640;SDS011;54434;50.096;20.082;2022-11-20T15:22:01;90.80;;;37.60;;
67640;SDS011;54434;50.096;20.082;2022-11-20T15:24:38;105.80;;;38.20;;
67640;SDS011;54434;50.096;20.082;2022-11-20T15:27:14;111.50;;;41.20;;
67640;SDS011;54434;50.096;20.082;2022-11-20T15:29:51;109.20;;;42.70;;
67640;SDS011;54434;50.096;20.082;2022-11-20T15:32:27;107.00;;;41.00;;
67640;SDS011;54434;50.096;20.082;2022-11-20T15:35:04;111.60;;;41.80;;
67640;SDS011;54434;50.096;20.082;2022-11-20T15:37:41;117.50;;;42.80;;